sensor_id;sensor_type;location;lat;lon;timestamp;temperature;humidity
51867;DHT22;52862;52.504;13.480;2023-09-18T00:00:49;19.40;99.90
51867;DHT22;52862;52.504;13.480;2023-09-18T00:03:16;19.10;99.90
51867;DHT22;52862;52.504;13.480;2023-09-18T00:05:45;19.70;99.90
51867;DHT22;52862;52.504;13.480;2023-09-18T00:10:39;19.70;99.90
51867;DHT22;52862;52.504;13.480;2023-09-18T00:13:05;19.30;99.90
51867;DHT22;52862;52.504;13.480;2023-09-18T00:15:32;19.00;99.90
51867;DHT22;52862;52.504;13.480;2023-09-18T00:18:00;19.50;99.90
51867;DHT22;52862;52.504;13.480;2023-09-18T00:20:27;18.40;99.90
51867;DHT22;52862;52.504;13.480;2023-09-18T00:22:54;19.10;99.90
51867;DHT22;52862;52.504;13.480;2023-09-18T00:25:21;19.20;99.90
51867;DHT22;52862;52.504;13.480;2023-09-18T00:30:15;19.40;99.90
51867;DHT22;52862;52.504;13.480;2023-09-18T00:32:42;19.10;99.90
51867;DHT22;52862;52.504;13.480;2023-09-18T00:35:09;19.50;99.90
51867;DHT22;52862;52.504;13.480;2023-09-18T00:37:36;19.00;99.90
51867;DHT22;52862;52.504;13.480;2023-09-18T00:40:06;17.70;99.90
51867;DHT22;52862;52.504;13.480;2023-09-18T00:42:33;19.40;99.90
51867;DHT22;52862;52.504;13.480;2023-09-18T00:45:00;19.20;99.90
51867;DHT22;52862;52.504;13.480;2023-09-18T00:47:27;19.30;99.90
51867;DHT22;52862;52.504;13.480;2023-09-18T00:49:54;18.80;99.90
51867;DHT22;52862;52.504;13.480;2023-09-18T00:52:23;19.00;99.90
51867;DHT22;52862;52.504;13.480;2023-09-18T00:54:50;19.40;99.90
51867;DHT22;52862;52.504;13.480;2023-09-18T00:57:18;18.80;99.90
51867;DHT22;52862;52.504;13.480;2023-09-18T00:59:45;18.70;99.90
51867;DHT22;52862;52.504;13.480;2023-09-18T01:02:12;19.30;99.90
51867;DHT22;52862;52.504;13.480;2023-09-18T01:04:40;18.60;99.90
51867;DHT22;52862;52.504;13.480;2023-09-18T01:07:10;19.30;99.90
51867;DHT22;52862;52.504;13.480;2023-09-18T01:09:38;18.90;99.90
51867;DHT22;52862;52.504;13.480;2023-09-18T01:12:11;19.30;99.90
51867;DHT22;52862;52.504;13.480;2023-09-18T01:14:48;18.80;99.90
51867;DHT22;52862;52.504;13.480;2023-09-18T01:17:16;19.10;99.90
51867;DHT22;52862;52.504;13.480;2023-09-18T01:19:44;18.80;99.90
51867;DHT22;52862;52.504;13.480;2023-09-18T01:22:13;18.70;99.90
51867;DHT22;52862;52.504;13.480;2023-09-18T01:24:42;19.00;99.90
51867;DHT22;52862;52.504;13.480;2023-09-18T01:27:10;18.70;99.90
51867;DHT22;52862;52.504;13.480;2023-09-18T01:29:37;18.90;99.90
51867;DHT22;52862;52.504;13.480;2023-09-18T01:32:04;18.80;99.90
51867;DHT22;52862;52.504;13.480;2023-09-18T01:34:35;18.90;99.90
51867;DHT22;52862;52.504;13.480;2023-09-18T01:37:03;18.80;99.90
51867;DHT22;52862;52.504;13.480;2023-09-18T01:39:32;18.70;99.90
51867;DHT22;52862;52.504;13.480;2023-09-18T01:42:02;19.10;99.90
51867;DHT22;52862;52.504;13.480;2023-09-18T01:44:30;18.70;99.90
51867;DHT22;52862;52.504;13.480;2023-09-18T01:46:59;18.90;99.90
51867;DHT22;52862;52.504;13.480;2023-09-18T01:49:30;18.40;99.90
51867;DHT22;52862;52.504;13.480;2023-09-18T01:51:57;18.30;99.90
51867;DHT22;52862;52.504;13.480;2023-09-18T01:54:24;18.80;99.90
51867;DHT22;52862;52.504;13.480;2023-09-18T01:56:51;18.40;99.90
51867;DHT22;52862;52.504;13.480;2023-09-18T01:59:19;18.40;99.90
51867;DHT22;52862;52.504;13.480;2023-09-18T02:01:46;18.80;99.90
51867;DHT22;52862;52.504;13.480;2023-09-18T02:07:00;18.60;99.90
51867;DHT22;52862;52.504;13.480;2023-09-18T02:11:54;18.40;99.90
51867;DHT22;52862;52.504;13.480;2023-09-18T02:14:21;18.70;99.90
51867;DHT22;52862;52.504;13.480;2023-09-18T02:16:48;18.40;99.90
51867;DHT22;52862;52.504;13.480;2023-09-18T02:21:43;18.20;99.90
51867;DHT22;52862;52.504;13.480;2023-09-18T02:29:07;18.10;99.90
51867;DHT22;52862;52.504;13.480;2023-09-18T02:31:34;18.40;99.90
51867;DHT22;52862;52.504;13.480;2023-09-18T02:36:28;18.40;99.90
51867;DHT22;52862;52.504;13.480;2023-09-18T02:38:55;18.30;99.90
51867;DHT22;52862;52.504;13.480;2023-09-18T02:41:21;18.10;99.90
51867;DHT22;52862;52.504;13.480;2023-09-18T02:43:48;17.90;99.90
51867;DHT22;52862;52.504;13.480;2023-09-18T02:46:15;17.90;99.90
51867;DHT22;52862;52.504;13.480;2023-09-18T02:48:42;18.10;99.90
51867;DHT22;52862;52.504;13.480;2023-09-18T02:51:09;17.90;99.90
51867;DHT22;52862;52.504;13.480;2023-09-18T02:56:03;18.40;99.90
51867;DHT22;52862;52.504;13.480;2023-09-18T02:58:30;17.90;99.90
51867;DHT22;52862;52.504;13.480;2023-09-18T03:00:57;18.30;99.90
51867;DHT22;52862;52.504;13.480;2023-09-18T03:03:26;17.90;99.90
51867;DHT22;52862;52.504;13.480;2023-09-18T03:05:59;17.90;99.90
51867;DHT22;52862;52.504;13.480;2023-09-18T03:10:53;17.10;99.90
51867;DHT22;52862;52.504;13.480;2023-09-18T03:15:47;17.90;99.90
51867;DHT22;52862;52.504;13.480;2023-09-18T03:18:14;18.10;99.90
51867;DHT22;52862;52.504;13.480;2023-09-18T03:23:08;17.70;99.90
51867;DHT22;52862;52.504;13.480;2023-09-18T03:25:36;17.20;99.90
51867;DHT22;52862;52.504;13.480;2023-09-18T03:28:17;17.90;99.90
51867;DHT22;52862;52.504;13.480;2023-09-18T03:30:44;18.00;99.90
51867;DHT22;52862;52.504;13.480;2023-09-18T03:33:11;18.40;99.90
51867;DHT22;52862;52.504;13.480;2023-09-18T03:35:46;17.90;99.90
51867;DHT22;52862;52.504;13.480;2023-09-18T03:38:14;17.70;99.90
51867;DHT22;52862;52.504;13.480;2023-09-18T03:40:41;18.00;99.90
51867;DHT22;52862;52.504;13.480;2023-09-18T03:43:08;17.90;99.90
51867;DHT22;52862;52.504;13.480;2023-09-18T03:48:03;18.10;99.90
51867;DHT22;52862;52.504;13.480;2023-09-18T03:52:58;17.90;99.90
51867;DHT22;52862;52.504;13.480;2023-09-18T03:55:25;17.80;99.90
51867;DHT22;52862;52.504;13.480;2023-09-18T03:57:52;17.60;99.90
51867;DHT22;52862;52.504;13.480;2023-09-18T04:00:19;17.80;99.90
51867;DHT22;52862;52.504;13.480;2023-09-18T04:02:46;17.90;99.90
51867;DHT22;52862;52.504;13.480;2023-09-18T04:05:13;17.70;99.90
51867;DHT22;52862;52.504;13.480;2023-09-18T04:07:39;17.30;99.90
51867;DHT22;52862;52.504;13.480;2023-09-18T04:10:06;17.80;99.90
51867;DHT22;52862;52.504;13.480;2023-09-18T04:12:34;17.60;99.90
51867;DHT22;52862;52.504;13.480;2023-09-18T04:17:28;17.60;99.90
51867;DHT22;52862;52.504;13.480;2023-09-18T04:19:55;17.70;99.90
51867;DHT22;52862;52.504;13.480;2023-09-18T04:22:22;17.50;99.90
51867;DHT22;52862;52.504;13.480;2023-09-18T04:24:48;17.60;99.90
51867;DHT22;52862;52.504;13.480;2023-09-18T04:29:43;17.60;99.90
51867;DHT22;52862;52.504;13.480;2023-09-18T04:32:09;17.80;99.90
51867;DHT22;52862;52.504;13.480;2023-09-18T04:39:32;17.40;99.90
51867;DHT22;52862;52.504;13.480;2023-09-18T04:42:01;17.60;99.90
51867;DHT22;52862;52.504;13.480;2023-09-18T04:46:58;17.90;99.90
51867;DHT22;52862;52.504;13.480;2023-09-18T04:49:25;18.20;99.90
51867;DHT22;52862;52.504;13.480;2023-09-18T04:51:52;16.80;99.90
51867;DHT22;52862;52.504;13.480;2023-09-18T04:54:19;17.60;99.90
51867;DHT22;52862;52.504;13.480;2023-09-18T04:59:12;17.40;99.90
51867;DHT22;52862;52.504;13.480;2023-09-18T05:04:09;17.60;99.90
51867;DHT22;52862;52.504;13.480;2023-09-18T05:16:27;17.70;99.90
51867;DHT22;52862;52.504;13.480;2023-09-18T05:18:54;17.60;99.90
51867;DHT22;52862;52.504;13.480;2023-09-18T05:21:22;18.10;99.90
51867;DHT22;52862;52.504;13.480;2023-09-18T05:23:53;18.00;99.90
51867;DHT22;52862;52.504;13.480;2023-09-18T05:28:49;17.90;99.90
51867;DHT22;52862;52.504;13.480;2023-09-18T05:36:13;18.40;99.90
51867;DHT22;52862;52.504;13.480;2023-09-18T05:38:40;18.30;99.90
51867;DHT22;52862;52.504;13.480;2023-09-18T05:43:35;18.50;99.90
51867;DHT22;52862;52.504;13.480;2023-09-18T05:46:02;18.80;99.90
51867;DHT22;52862;52.504;13.480;2023-09-18T05:50:56;18.50;99.90
51867;DHT22;52862;52.504;13.480;2023-09-18T05:53:23;19.10;99.90
51867;DHT22;52862;52.504;13.480;2023-09-18T05:55:50;18.80;99.90
51867;DHT22;52862;52.504;13.480;2023-09-18T05:58:17;19.40;99.90
51867;DHT22;52862;52.504;13.480;2023-09-18T06:00:48;19.10;99.90
51867;DHT22;52862;52.504;13.480;2023-09-18T06:03:15;18.90;99.90
51867;DHT22;52862;52.504;13.480;2023-09-18T06:05:45;19.90;99.90
51867;DHT22;52862;52.504;13.480;2023-09-18T06:08:11;19.10;99.90
51867;DHT22;52862;52.504;13.480;2023-09-18T06:10:38;20.00;99.90
51867;DHT22;52862;52.504;13.480;2023-09-18T06:13:06;19.80;99.90
51867;DHT22;52862;52.504;13.480;2023-09-18T06:15:33;19.20;99.90
51867;DHT22;52862;52.504;13.480;2023-09-18T06:18:00;19.50;99.90
51867;DHT22;52862;52.504;13.480;2023-09-18T06:20:26;20.20;99.90
51867;DHT22;52862;52.504;13.480;2023-09-18T06:22:53;20.10;99.90
51867;DHT22;52862;52.504;13.480;2023-09-18T06:25:20;20.20;99.90
51867;DHT22;52862;52.504;13.480;2023-09-18T06:30:15;19.80;99.90
51867;DHT22;52862;52.504;13.480;2023-09-18T06:32:41;20.30;99.90
51867;DHT22;52862;52.504;13.480;2023-09-18T06:35:08;19.90;99.90
51867;DHT22;52862;52.504;13.480;2023-09-18T06:37:35;20.40;99.90
51867;DHT22;52862;52.504;13.480;2023-09-18T06:40:02;20.10;99.90
51867;DHT22;52862;52.504;13.480;2023-09-18T06:42:31;20.10;99.90
51867;DHT22;52862;52.504;13.480;2023-09-18T06:44:58;20.50;99.90
51867;DHT22;52862;52.504;13.480;2023-09-18T06:47:27;20.60;99.90
51867;DHT22;52862;52.504;13.480;2023-09-18T06:49:54;20.30;99.90
51867;DHT22;52862;52.504;13.480;2023-09-18T06:52:21;20.50;99.90
51867;DHT22;52862;52.504;13.480;2023-09-18T06:54:48;20.50;99.90
51867;DHT22;52862;52.504;13.480;2023-09-18T06:57:18;20.20;99.90
51867;DHT22;52862;52.504;13.480;2023-09-18T06:59:47;20.50;99.90
51867;DHT22;52862;52.504;13.480;2023-09-18T07:02:14;21.30;99.90
51867;DHT22;52862;52.504;13.480;2023-09-18T07:04:42;21.10;99.90
51867;DHT22;52862;52.504;13.480;2023-09-18T07:07:12;21.40;99.90
51867;DHT22;52862;52.504;13.480;2023-09-18T07:09:39;21.60;99.90
51867;DHT22;52862;52.504;13.480;2023-09-18T07:12:26;21.50;99.90
51867;DHT22;52862;52.504;13.480;2023-09-18T07:14:54;21.80;99.90
51867;DHT22;52862;52.504;13.480;2023-09-18T07:17:20;21.40;99.90
51867;DHT22;52862;52.504;13.480;2023-09-18T07:19:49;22.10;99.90
51867;DHT22;52862;52.504;13.480;2023-09-18T07:22:16;21.60;99.90
51867;DHT22;52862;52.504;13.480;2023-09-18T07:24:43;21.70;99.90
51867;DHT22;52862;52.504;13.480;2023-09-18T07:27:11;22.10;99.90
51867;DHT22;52862;52.504;13.480;2023-09-18T07:29:38;22.50;99.90
51867;DHT22;52862;52.504;13.480;2023-09-18T07:32:05;22.60;99.90
51867;DHT22;52862;52.504;13.480;2023-09-18T07:34:32;23.10;99.90
51867;DHT22;52862;52.504;13.480;2023-09-18T07:37:02;22.80;99.90
51867;DHT22;52862;52.504;13.480;2023-09-18T07:39:29;23.10;99.90
51867;DHT22;52862;52.504;13.480;2023-09-18T07:41:56;22.80;99.90
51867;DHT22;52862;52.504;13.480;2023-09-18T07:44:23;22.80;99.90
51867;DHT22;52862;52.504;13.480;2023-09-18T07:49:17;23.70;99.90
51867;DHT22;52862;52.504;13.480;2023-09-18T07:54:14;22.70;99.90
51867;DHT22;52862;52.504;13.480;2023-09-18T07:56:42;23.30;99.90
51867;DHT22;52862;52.504;13.480;2023-09-18T07:59:09;20.60;99.90
51867;DHT22;52862;52.504;13.480;2023-09-18T08:01:36;22.90;99.90
51867;DHT22;52862;52.504;13.480;2023-09-18T08:04:05;23.00;99.90
51867;DHT22;52862;52.504;13.480;2023-09-18T08:06:32;23.20;99.90
51867;DHT22;52862;52.504;13.480;2023-09-18T08:09:00;23.60;99.90
51867;DHT22;52862;52.504;13.480;2023-09-18T08:11:27;23.20;99.90
51867;DHT22;52862;52.504;13.480;2023-09-18T08:13:55;23.60;99.90
51867;DHT22;52862;52.504;13.480;2023-09-18T08:16:22;23.40;99.90
51867;DHT22;52862;52.504;13.480;2023-09-18T08:18:49;23.80;99.90
51867;DHT22;52862;52.504;13.480;2023-09-18T08:21:16;23.30;99.90
51867;DHT22;52862;52.504;13.480;2023-09-18T08:23:43;24.10;99.90
51867;DHT22;52862;52.504;13.480;2023-09-18T08:26:11;24.10;99.90
51867;DHT22;52862;52.504;13.480;2023-09-18T08:28:38;23.80;99.90
51867;DHT22;52862;52.504;13.480;2023-09-18T08:31:09;24.00;99.90
51867;DHT22;52862;52.504;13.480;2023-09-18T08:33:36;24.30;99.90
51867;DHT22;52862;52.504;13.480;2023-09-18T08:36:03;24.30;99.90
51867;DHT22;52862;52.504;13.480;2023-09-18T08:38:30;25.00;99.90
51867;DHT22;52862;52.504;13.480;2023-09-18T08:40:58;24.90;99.90
51867;DHT22;52862;52.504;13.480;2023-09-18T08:43:26;24.70;99.90
51867;DHT22;52862;52.504;13.480;2023-09-18T08:45:57;24.80;99.90
51867;DHT22;52862;52.504;13.480;2023-09-18T08:48:30;24.40;99.90
51867;DHT22;52862;52.504;13.480;2023-09-18T08:51:02;25.00;99.90
51867;DHT22;52862;52.504;13.480;2023-09-18T08:53:31;25.20;99.90
51867;DHT22;52862;52.504;13.480;2023-09-18T08:55:59;25.50;99.90
51867;DHT22;52862;52.504;13.480;2023-09-18T09:00:56;25.80;99.90
51867;DHT22;52862;52.504;13.480;2023-09-18T09:03:24;25.50;99.90
51867;DHT22;52862;52.504;13.480;2023-09-18T09:05:52;25.70;99.90
51867;DHT22;52862;52.504;13.480;2023-09-18T09:08:19;25.80;99.90
51867;DHT22;52862;52.504;13.480;2023-09-18T09:10:47;25.60;99.90
51867;DHT22;52862;52.504;13.480;2023-09-18T09:13:14;25.60;99.90
51867;DHT22;52862;52.504;13.480;2023-09-18T09:16:01;25.30;99.90
51867;DHT22;52862;52.504;13.480;2023-09-18T09:18:29;25.60;99.90
51867;DHT22;52862;52.504;13.480;2023-09-18T09:20:58;25.70;99.90
51867;DHT22;52862;52.504;13.480;2023-09-18T09:23:27;26.00;99.90
51867;DHT22;52862;52.504;13.480;2023-09-18T09:26:00;26.30;99.90
51867;DHT22;52862;52.504;13.480;2023-09-18T09:28:38;26.30;99.90
51867;DHT22;52862;52.504;13.480;2023-09-18T09:31:05;26.50;99.90
51867;DHT22;52862;52.504;13.480;2023-09-18T09:33:33;26.20;99.90
51867;DHT22;52862;52.504;13.480;2023-09-18T09:36:00;26.30;99.90
51867;DHT22;52862;52.504;13.480;2023-09-18T09:38:31;26.30;99.90
51867;DHT22;52862;52.504;13.480;2023-09-18T09:40:58;26.20;99.90
51867;DHT22;52862;52.504;13.480;2023-09-18T09:43:26;26.30;99.90
51867;DHT22;52862;52.504;13.480;2023-09-18T09:45:57;26.30;99.90
51867;DHT22;52862;52.504;13.480;2023-09-18T09:48:25;26.40;99.90
51867;DHT22;52862;52.504;13.480;2023-09-18T09:50:52;26.40;99.90
51867;DHT22;52862;52.504;13.480;2023-09-18T09:53:41;26.40;99.90
51867;DHT22;52862;52.504;13.480;2023-09-18T09:56:08;26.40;99.90
51867;DHT22;52862;52.504;13.480;2023-09-18T09:58:35;26.40;99.90
51867;DHT22;52862;52.504;13.480;2023-09-18T10:01:04;26.40;99.90
51867;DHT22;52862;52.504;13.480;2023-09-18T10:03:38;26.40;99.90
51867;DHT22;52862;52.504;13.480;2023-09-18T10:06:07;26.40;99.90
51867;DHT22;52862;52.504;13.480;2023-09-18T10:08:41;26.50;99.90
51867;DHT22;52862;52.504;13.480;2023-09-18T10:11:09;26.20;99.90
51867;DHT22;52862;52.504;13.480;2023-09-18T10:13:46;26.00;99.90
51867;DHT22;52862;52.504;13.480;2023-09-18T10:16:18;26.30;99.90
51867;DHT22;52862;52.504;13.480;2023-09-18T10:18:56;26.60;99.90
51867;DHT22;52862;52.504;13.480;2023-09-18T10:21:35;25.90;99.90
51867;DHT22;52862;52.504;13.480;2023-09-18T10:24:11;26.20;99.90
51867;DHT22;52862;52.504;13.480;2023-09-18T10:26:46;26.50;99.90
51867;DHT22;52862;52.504;13.480;2023-09-18T10:29:14;26.10;99.90
51867;DHT22;52862;52.504;13.480;2023-09-18T10:31:44;26.30;99.90
51867;DHT22;52862;52.504;13.480;2023-09-18T10:34:14;25.80;99.90
51867;DHT22;52862;52.504;13.480;2023-09-18T10:36:43;26.00;99.90
51867;DHT22;52862;52.504;13.480;2023-09-18T10:39:13;26.20;99.90
51867;DHT22;52862;52.504;13.480;2023-09-18T10:41:47;26.20;99.90
51867;DHT22;52862;52.504;13.480;2023-09-18T10:44:16;26.30;99.90
51867;DHT22;52862;52.504;13.480;2023-09-18T10:46:43;26.30;99.90
51867;DHT22;52862;52.504;13.480;2023-09-18T10:49:10;26.40;99.90
51867;DHT22;52862;52.504;13.480;2023-09-18T10:51:38;26.40;99.90
51867;DHT22;52862;52.504;13.480;2023-09-18T10:54:10;26.30;99.90
51867;DHT22;52862;52.504;13.480;2023-09-18T10:56:41;26.20;99.90
51867;DHT22;52862;52.504;13.480;2023-09-18T10:59:08;25.80;99.90
51867;DHT22;52862;52.504;13.480;2023-09-18T11:01:36;26.10;99.90
51867;DHT22;52862;52.504;13.480;2023-09-18T11:04:04;26.20;99.90
51867;DHT22;52862;52.504;13.480;2023-09-18T11:07:04;26.20;99.90
51867;DHT22;52862;52.504;13.480;2023-09-18T11:09:40;26.30;99.90
51867;DHT22;52862;52.504;13.480;2023-09-18T11:12:16;26.10;99.90
51867;DHT22;52862;52.504;13.480;2023-09-18T11:14:46;26.00;99.90
51867;DHT22;52862;52.504;13.480;2023-09-18T11:17:34;26.00;99.90
51867;DHT22;52862;52.504;13.480;2023-09-18T11:20:07;25.70;99.90
51867;DHT22;52862;52.504;13.480;2023-09-18T11:22:37;25.80;99.90
51867;DHT22;52862;52.504;13.480;2023-09-18T11:28:13;26.00;99.90
51867;DHT22;52862;52.504;13.480;2023-09-18T11:30:49;25.50;99.90
51867;DHT22;52862;52.504;13.480;2023-09-18T11:33:30;26.10;99.90
51867;DHT22;52862;52.504;13.480;2023-09-18T11:36:02;26.70;99.90
51867;DHT22;52862;52.504;13.480;2023-09-18T11:38:31;25.90;99.90
51867;DHT22;52862;52.504;13.480;2023-09-18T11:41:00;25.90;99.90
51867;DHT22;52862;52.504;13.480;2023-09-18T11:43:29;26.10;99.90
51867;DHT22;52862;52.504;13.480;2023-09-18T11:45:58;25.90;99.90
51867;DHT22;52862;52.504;13.480;2023-09-18T11:48:26;25.80;99.90
51867;DHT22;52862;52.504;13.480;2023-09-18T11:50:57;25.70;99.90
51867;DHT22;52862;52.504;13.480;2023-09-18T11:53:26;25.70;99.90
51867;DHT22;52862;52.504;13.480;2023-09-18T11:55:54;25.70;99.90
51867;DHT22;52862;52.504;13.480;2023-09-18T11:58:21;25.60;99.90
51867;DHT22;52862;52.504;13.480;2023-09-18T12:00:50;25.50;99.90
51867;DHT22;52862;52.504;13.480;2023-09-18T12:03:18;25.50;99.90
51867;DHT22;52862;52.504;13.480;2023-09-18T12:05:55;25.50;99.90
51867;DHT22;52862;52.504;13.480;2023-09-18T12:08:23;25.50;99.90
51867;DHT22;52862;52.504;13.480;2023-09-18T12:10:54;25.60;99.90
51867;DHT22;52862;52.504;13.480;2023-09-18T12:13:21;25.70;99.90
51867;DHT22;52862;52.504;13.480;2023-09-18T12:15:48;25.90;99.90
51867;DHT22;52862;52.504;13.480;2023-09-18T12:18:16;26.10;99.90
51867;DHT22;52862;52.504;13.480;2023-09-18T12:20:47;26.30;99.90
51867;DHT22;52862;52.504;13.480;2023-09-18T12:23:14;26.90;99.90
51867;DHT22;52862;52.504;13.480;2023-09-18T12:25:42;26.60;99.90
51867;DHT22;52862;52.504;13.480;2023-09-18T12:28:13;26.80;99.90
51867;DHT22;52862;52.504;13.480;2023-09-18T12:30:41;26.80;99.90
51867;DHT22;52862;52.504;13.480;2023-09-18T12:33:08;27.00;99.90
51867;DHT22;52862;52.504;13.480;2023-09-18T12:35:36;27.00;99.90
51867;DHT22;52862;52.504;13.480;2023-09-18T12:38:14;26.90;99.90
51867;DHT22;52862;52.504;13.480;2023-09-18T12:40:42;26.80;99.90
51867;DHT22;52862;52.504;13.480;2023-09-18T12:43:11;26.70;99.90
51867;DHT22;52862;52.504;13.480;2023-09-18T12:45:38;26.10;99.90
51867;DHT22;52862;52.504;13.480;2023-09-18T12:48:06;26.70;99.90
51867;DHT22;52862;52.504;13.480;2023-09-18T12:50:33;26.40;99.90
51867;DHT22;52862;52.504;13.480;2023-09-18T12:53:09;26.40;99.90
51867;DHT22;52862;52.504;13.480;2023-09-18T12:55:36;26.20;99.90
51867;DHT22;52862;52.504;13.480;2023-09-18T12:58:04;26.10;99.90
51867;DHT22;52862;52.504;13.480;2023-09-18T13:00:35;26.10;99.90
51867;DHT22;52862;52.504;13.480;2023-09-18T13:03:03;26.30;99.90
51867;DHT22;52862;52.504;13.480;2023-09-18T13:05:32;26.00;99.90
51867;DHT22;52862;52.504;13.480;2023-09-18T13:08:04;25.90;99.90
51867;DHT22;52862;52.504;13.480;2023-09-18T13:10:43;25.50;99.90
51867;DHT22;52862;52.504;13.480;2023-09-18T13:13:17;26.00;99.90
51867;DHT22;52862;52.504;13.480;2023-09-18T13:15:46;25.20;99.90
51867;DHT22;52862;52.504;13.480;2023-09-18T13:18:14;25.10;99.90
51867;DHT22;52862;52.504;13.480;2023-09-18T13:20:43;25.10;99.90
51867;DHT22;52862;52.504;13.480;2023-09-18T13:23:11;25.60;99.90
51867;DHT22;52862;52.504;13.480;2023-09-18T13:25:40;26.10;99.90
51867;DHT22;52862;52.504;13.480;2023-09-18T13:28:11;25.90;99.90
51867;DHT22;52862;52.504;13.480;2023-09-18T13:30:41;25.60;99.90
51867;DHT22;52862;52.504;13.480;2023-09-18T13:33:10;25.00;99.90
51867;DHT22;52862;52.504;13.480;2023-09-18T13:35:41;25.00;99.90
51867;DHT22;52862;52.504;13.480;2023-09-18T13:38:11;25.40;99.90
51867;DHT22;52862;52.504;13.480;2023-09-18T13:40:39;25.10;99.90
51867;DHT22;52862;52.504;13.480;2023-09-18T13:43:08;25.00;99.90
51867;DHT22;52862;52.504;13.480;2023-09-18T13:45:35;25.00;99.90
51867;DHT22;52862;52.504;13.480;2023-09-18T13:48:03;25.30;99.90
51867;DHT22;52862;52.504;13.480;2023-09-18T13:50:31;25.20;99.90
51867;DHT22;52862;52.504;13.480;2023-09-18T13:52:58;24.70;99.90
51867;DHT22;52862;52.504;13.480;2023-09-18T13:55:29;25.50;99.90
51867;DHT22;52862;52.504;13.480;2023-09-18T13:57:56;25.20;99.90
51867;DHT22;52862;52.504;13.480;2023-09-18T14:00:23;25.30;99.90
51867;DHT22;52862;52.504;13.480;2023-09-18T14:02:52;25.30;99.90
51867;DHT22;52862;52.504;13.480;2023-09-18T14:05:19;25.20;99.90
51867;DHT22;52862;52.504;13.480;2023-09-18T14:07:47;25.70;99.90
51867;DHT22;52862;52.504;13.480;2023-09-18T14:10:15;25.40;99.90
51867;DHT22;52862;52.504;13.480;2023-09-18T14:12:43;25.40;99.90
51867;DHT22;52862;52.504;13.480;2023-09-18T14:15:10;25.30;99.90
51867;DHT22;52862;52.504;13.480;2023-09-18T14:17:37;24.60;99.90
51867;DHT22;52862;52.504;13.480;2023-09-18T14:20:06;24.80;99.90
51867;DHT22;52862;52.504;13.480;2023-09-18T14:22:33;25.00;99.90
51867;DHT22;52862;52.504;13.480;2023-09-18T14:25:01;25.30;99.90
51867;DHT22;52862;52.504;13.480;2023-09-18T14:27:31;26.60;99.90
51867;DHT22;52862;52.504;13.480;2023-09-18T14:29:58;24.90;99.90
51867;DHT22;52862;52.504;13.480;2023-09-18T14:32:25;26.30;99.90
51867;DHT22;52862;52.504;13.480;2023-09-18T14:34:53;24.20;99.90
51867;DHT22;52862;52.504;13.480;2023-09-18T14:37:20;24.50;99.90
51867;DHT22;52862;52.504;13.480;2023-09-18T14:39:46;23.90;99.90
51867;DHT22;52862;52.504;13.480;2023-09-18T14:42:14;24.40;99.90
51867;DHT22;52862;52.504;13.480;2023-09-18T14:44:41;24.80;99.90
51867;DHT22;52862;52.504;13.480;2023-09-18T14:47:11;24.80;99.90
51867;DHT22;52862;52.504;13.480;2023-09-18T14:49:38;24.30;99.90
51867;DHT22;52862;52.504;13.480;2023-09-18T14:54:32;24.10;99.90
51867;DHT22;52862;52.504;13.480;2023-09-18T14:56:59;24.90;99.90
51867;DHT22;52862;52.504;13.480;2023-09-18T14:59:28;24.20;99.90
51867;DHT22;52862;52.504;13.480;2023-09-18T15:02:08;24.60;99.90
51867;DHT22;52862;52.504;13.480;2023-09-18T15:04:35;23.10;99.90
51867;DHT22;52862;52.504;13.480;2023-09-18T15:07:03;24.30;99.90
51867;DHT22;52862;52.504;13.480;2023-09-18T15:09:30;24.90;99.90
51867;DHT22;52862;52.504;13.480;2023-09-18T15:11:56;24.80;99.90
51867;DHT22;52862;52.504;13.480;2023-09-18T15:14:23;24.70;99.90
51867;DHT22;52862;52.504;13.480;2023-09-18T15:16:51;25.30;99.90
51867;DHT22;52862;52.504;13.480;2023-09-18T15:19:18;24.80;99.90
51867;DHT22;52862;52.504;13.480;2023-09-18T15:21:47;24.90;99.90
51867;DHT22;52862;52.504;13.480;2023-09-18T15:24:14;24.60;99.90
51867;DHT22;52862;52.504;13.480;2023-09-18T15:26:41;24.60;99.90
51867;DHT22;52862;52.504;13.480;2023-09-18T15:29:08;24.80;99.90
51867;DHT22;52862;52.504;13.480;2023-09-18T15:31:34;25.10;99.90
51867;DHT22;52862;52.504;13.480;2023-09-18T15:34:02;24.40;99.90
51867;DHT22;52862;52.504;13.480;2023-09-18T15:36:29;24.80;99.90
51867;DHT22;52862;52.504;13.480;2023-09-18T15:43:54;25.40;99.90
51867;DHT22;52862;52.504;13.480;2023-09-18T15:48:48;25.00;99.90
51867;DHT22;52862;52.504;13.480;2023-09-18T15:51:17;25.20;99.90
51867;DHT22;52862;52.504;13.480;2023-09-18T15:53:44;24.30;99.90
51867;DHT22;52862;52.504;13.480;2023-09-18T15:56:12;24.40;99.90
51867;DHT22;52862;52.504;13.480;2023-09-18T16:01:06;25.00;99.90
51867;DHT22;52862;52.504;13.480;2023-09-18T16:03:40;24.20;99.90
51867;DHT22;52862;52.504;13.480;2023-09-18T16:06:14;24.00;99.90
51867;DHT22;52862;52.504;13.480;2023-09-18T16:08:42;24.20;99.90
51867;DHT22;52862;52.504;13.480;2023-09-18T16:13:38;24.20;99.90
51867;DHT22;52862;52.504;13.480;2023-09-18T16:16:05;24.00;99.90
51867;DHT22;52862;52.504;13.480;2023-09-18T16:18:32;24.10;99.90
51867;DHT22;52862;52.504;13.480;2023-09-18T16:20:58;24.10;99.90
51867;DHT22;52862;52.504;13.480;2023-09-18T16:23:26;23.80;99.90
51867;DHT22;52862;52.504;13.480;2023-09-18T16:25:56;23.80;99.90
51867;DHT22;52862;52.504;13.480;2023-09-18T16:28:23;23.60;99.90
51867;DHT22;52862;52.504;13.480;2023-09-18T16:30:50;23.90;99.90
51867;DHT22;52862;52.504;13.480;2023-09-18T16:33:17;23.60;99.90
51867;DHT22;52862;52.504;13.480;2023-09-18T16:35:44;23.40;99.90
51867;DHT22;52862;52.504;13.480;2023-09-18T16:38:13;23.20;99.90
51867;DHT22;52862;52.504;13.480;2023-09-18T16:40:43;22.90;99.90
51867;DHT22;52862;52.504;13.480;2023-09-18T16:43:10;23.30;99.90
51867;DHT22;52862;52.504;13.480;2023-09-18T16:45:37;22.80;99.90
51867;DHT22;52862;52.504;13.480;2023-09-18T16:48:06;22.80;99.90
51867;DHT22;52862;52.504;13.480;2023-09-18T16:53:01;22.50;99.90
51867;DHT22;52862;52.504;13.480;2023-09-18T16:55:28;22.50;99.90
51867;DHT22;52862;52.504;13.480;2023-09-18T16:57:55;23.00;99.90
51867;DHT22;52862;52.504;13.480;2023-09-18T17:00:22;22.80;99.90
51867;DHT22;52862;52.504;13.480;2023-09-18T17:05:17;22.50;99.90
51867;DHT22;52862;52.504;13.480;2023-09-18T17:07:45;22.70;99.90
51867;DHT22;52862;52.504;13.480;2023-09-18T17:10:11;22.10;99.90